sensor_id;sensor_type;location;lat;lon;timestamp;pressure;altitude;pressure_sealevel;temperature;humidity
8573;BME280;4324;42.012;24.872;2023-02-02T00:01:39;98964.50;;;4.53;85.83
8573;BME280;4324;42.012;24.872;2023-02-02T00:04:06;98964.41;;;4.44;86.16
8573;BME280;4324;42.012;24.872;2023-02-02T00:06:33;98966.34;;;4.42;86.30
8573;BME280;4324;42.012;24.872;2023-02-02T00:09:01;98976.25;;;4.38;86.28
8573;BME280;4324;42.012;24.872;2023-02-02T00:11:28;98971.38;;;4.33;86.85
8573;BME280;4324;42.012;24.872;2023-02-02T00:13:55;98958.78;;;4.27;87.09
8573;BME280;4324;42.012;24.872;2023-02-02T00:16:41;98967.59;;;4.26;87.38
8573;BME280;4324;42.012;24.872;2023-02-02T00:19:11;98990.25;;;4.27;87.16
8573;BME280;4324;42.012;24.872;2023-02-02T00:21:38;98980.41;;;4.20;87.38
8573;BME280;4324;42.012;24.872;2023-02-02T00:24:08;98940.53;;;3.84;87.59
8573;BME280;4324;42.012;24.872;2023-02-02T00:26:35;98998.91;;;4.07;86.81
8573;BME280;4324;42.012;24.872;2023-02-02T00:29:03;99024.84;;;4.10;86.18
8573;BME280;4324;42.012;24.872;2023-02-02T00:31:30;99013.09;;;4.04;85.72
8573;BME280;4324;42.012;24.872;2023-02-02T00:33:57;99027.69;;;4.18;86.06
8573;BME280;4324;42.012;24.872;2023-02-02T00:36:24;99015.06;;;4.23;87.17
8573;BME280;4324;42.012;24.872;2023-02-02T00:38:51;99017.28;;;4.28;87.61
8573;BME280;4324;42.012;24.872;2023-02-02T00:41:19;99019.53;;;4.32;88.28
8573;BME280;4324;42.012;24.872;2023-02-02T00:43:46;99022.63;;;4.38;88.31
8573;BME280;4324;42.012;24.872;2023-02-02T00:46:34;99010.78;;;4.43;88.59
8573;BME280;4324;42.012;24.872;2023-02-02T00:49:03;99008.16;;;4.43;88.63
8573;BME280;4324;42.012;24.872;2023-02-02T00:51:30;99015.63;;;4.48;88.60
8573;BME280;4324;42.012;24.872;2023-02-02T00:53:56;99028.84;;;4.57;88.84
8573;BME280;4324;42.012;24.872;2023-02-02T00:56:25;99024.75;;;4.65;86.84
8573;BME280;4324;42.012;24.872;2023-02-02T00:58:52;99017.50;;;4.78;87.53
8573;BME280;4324;42.012;24.872;2023-02-02T01:01:20;99006.44;;;4.74;87.19
8573;BME280;4324;42.012;24.872;2023-02-02T01:03:47;99011.09;;;4.92;87.68
8573;BME280;4324;42.012;24.872;2023-02-02T01:06:14;99011.72;;;5.05;87.89
8573;BME280;4324;42.012;24.872;2023-02-02T01:08:41;98988.38;;;5.02;88.36
8573;BME280;4324;42.012;24.872;2023-02-02T01:11:08;99013.44;;;5.16;88.69
8573;BME280;4324;42.012;24.872;2023-02-02T01:13:37;99019.25;;;5.19;88.60
8573;BME280;4324;42.012;24.872;2023-02-02T01:16:05;98984.78;;;5.03;88.66
8573;BME280;4324;42.012;24.872;2023-02-02T01:18:32;99018.72;;;5.25;88.80
8573;BME280;4324;42.012;24.872;2023-02-02T01:21:00;99001.97;;;5.17;88.59
8573;BME280;4324;42.012;24.872;2023-02-02T01:23:27;99015.56;;;5.31;89.02
8573;BME280;4324;42.012;24.872;2023-02-02T01:25:55;99011.84;;;5.34;88.74
8573;BME280;4324;42.012;24.872;2023-02-02T01:28:23;98965.56;;;5.02;88.84
8573;BME280;4324;42.012;24.872;2023-02-02T01:30:51;98994.41;;;5.23;88.96
8573;BME280;4324;42.012;24.872;2023-02-02T01:33:19;98987.47;;;5.22;89.28
8573;BME280;4324;42.012;24.872;2023-02-02T01:35:46;99012.13;;;5.31;89.25
8573;BME280;4324;42.012;24.872;2023-02-02T01:38:13;99005.06;;;5.31;89.14
8573;BME280;4324;42.012;24.872;2023-02-02T01:40:44;99006.59;;;5.34;89.24
8573;BME280;4324;42.012;24.872;2023-02-02T01:43:21;99002.88;;;5.37;89.40
8573;BME280;4324;42.012;24.872;2023-02-02T01:45:50;99000.78;;;5.30;89.64
8573;BME280;4324;42.012;24.872;2023-02-02T01:48:18;99009.09;;;5.36;89.43
8573;BME280;4324;42.012;24.872;2023-02-02T01:50:46;99017.53;;;5.39;89.69
8573;BME280;4324;42.012;24.872;2023-02-02T01:53:16;98990.81;;;5.24;89.89
8573;BME280;4324;42.012;24.872;2023-02-02T01:55:46;99003.13;;;5.33;90.04
8573;BME280;4324;42.012;24.872;2023-02-02T01:58:16;99009.34;;;5.32;89.75
8573;BME280;4324;42.012;24.872;2023-02-02T02:00:45;99022.06;;;5.37;89.94
8573;BME280;4324;42.012;24.872;2023-02-02T02:03:15;99035.34;;;5.36;89.79
8573;BME280;4324;42.012;24.872;2023-02-02T02:05:47;99021.78;;;5.30;90.14
8573;BME280;4324;42.012;24.872;2023-02-02T02:08:18;99025.94;;;5.33;90.36
8573;BME280;4324;42.012;24.872;2023-02-02T02:10:46;99024.84;;;5.36;90.09
8573;BME280;4324;42.012;24.872;2023-02-02T02:13:13;99026.25;;;5.40;90.49
8573;BME280;4324;42.012;24.872;2023-02-02T02:15:53;98999.38;;;5.26;89.93
8573;BME280;4324;42.012;24.872;2023-02-02T02:18:46;99015.72;;;5.40;90.42
8573;BME280;4324;42.012;24.872;2023-02-02T02:21:35;99013.38;;;5.37;90.44
8573;BME280;4324;42.012;24.872;2023-02-02T02:28:24;98999.66;;;5.23;90.71
8573;BME280;4324;42.012;24.872;2023-02-02T02:31:27;99011.56;;;5.27;90.81
8573;BME280;4324;42.012;24.872;2023-02-02T02:34:01;99011.81;;;5.24;90.67
8573;BME280;4324;42.012;24.872;2023-02-02T02:36:38;98989.94;;;5.14;90.76
8573;BME280;4324;42.012;24.872;2023-02-02T02:39:12;99001.81;;;5.18;90.99
8573;BME280;4324;42.012;24.872;2023-02-02T02:41:43;99014.28;;;5.26;91.37
8573;BME280;4324;42.012;24.872;2023-02-02T02:44:15;99023.97;;;5.25;91.11
8573;BME280;4324;42.012;24.872;2023-02-02T02:46:43;98983.78;;;5.04;91.27
8573;BME280;4324;42.012;24.872;2023-02-02T02:49:12;98991.88;;;5.12;91.08
8573;BME280;4324;42.012;24.872;2023-02-02T02:51:45;99007.91;;;5.19;90.95
8573;BME280;4324;42.012;24.872;2023-02-02T02:54:15;99002.78;;;5.17;91.26
8573;BME280;4324;42.012;24.872;2023-02-02T02:57:00;99004.69;;;5.15;91.51
8573;BME280;4324;42.012;24.872;2023-02-02T02:59:37;99001.41;;;5.13;91.47
8573;BME280;4324;42.012;24.872;2023-02-02T03:02:21;98998.47;;;5.06;91.74
8573;BME280;4324;42.012;24.872;2023-02-02T03:05:00;98989.34;;;5.01;91.91
8573;BME280;4324;42.012;24.872;2023-02-02T03:07:34;98991.97;;;5.01;92.08
8573;BME280;4324;42.012;24.872;2023-02-02T03:10:05;98991.00;;;5.02;92.10
8573;BME280;4324;42.012;24.872;2023-02-02T03:12:33;98982.63;;;4.87;92.03
8573;BME280;4324;42.012;24.872;2023-02-02T03:15:09;98877.53;;;4.27;92.29
8573;BME280;4324;42.012;24.872;2023-02-02T03:17:36;98976.56;;;4.87;92.41
8573;BME280;4324;42.012;24.872;2023-02-02T03:20:05;98977.56;;;4.95;92.63
8573;BME280;4324;42.012;24.872;2023-02-02T03:22:32;98977.94;;;4.91;92.36
8573;BME280;4324;42.012;24.872;2023-02-02T03:24:58;98991.50;;;4.96;92.41
8573;BME280;4324;42.012;24.872;2023-02-02T03:27:26;98991.06;;;4.91;92.36
8573;BME280;4324;42.012;24.872;2023-02-02T03:29:53;98980.50;;;4.81;92.17
8573;BME280;4324;42.012;24.872;2023-02-02T03:32:20;98985.66;;;4.82;91.70
8573;BME280;4324;42.012;24.872;2023-02-02T03:34:47;98979.81;;;4.79;92.04
8573;BME280;4324;42.012;24.872;2023-02-02T03:37:16;98975.41;;;4.79;92.69
8573;BME280;4324;42.012;24.872;2023-02-02T03:39:42;98972.00;;;4.89;92.46
8573;BME280;4324;42.012;24.872;2023-02-02T03:42:09;98973.03;;;4.97;92.42
8573;BME280;4324;42.012;24.872;2023-02-02T03:44:36;98980.50;;;5.02;90.96
8573;BME280;4324;42.012;24.872;2023-02-02T03:47:03;98981.78;;;5.17;91.84
8573;BME280;4324;42.012;24.872;2023-02-02T03:49:30;98977.84;;;5.32;90.91
8573;BME280;4324;42.012;24.872;2023-02-02T03:51:57;98965.44;;;5.44;91.95
8573;BME280;4324;42.012;24.872;2023-02-02T03:54:25;98979.84;;;5.59;91.55
8573;BME280;4324;42.012;24.872;2023-02-02T03:56:52;98971.03;;;5.80;89.42
8573;BME280;4324;42.012;24.872;2023-02-02T03:59:19;98976.91;;;5.93;90.63
8573;BME280;4324;42.012;24.872;2023-02-02T04:01:46;98969.56;;;6.06;88.80
8573;BME280;4324;42.012;24.872;2023-02-02T04:04:13;98963.06;;;6.20;90.14
8573;BME280;4324;42.012;24.872;2023-02-02T04:06:40;98962.81;;;6.23;89.63
8573;BME280;4324;42.012;24.872;2023-02-02T04:09:07;98969.13;;;6.40;86.47
8573;BME280;4324;42.012;24.872;2023-02-02T04:11:35;98921.84;;;6.21;88.23
8573;BME280;4324;42.012;24.872;2023-02-02T04:14:02;98970.50;;;6.54;85.47
8573;BME280;4324;42.012;24.872;2023-02-02T04:16:29;98968.56;;;6.66;86.51
8573;BME280;4324;42.012;24.872;2023-02-02T04:18:59;98967.84;;;6.73;87.06
8573;BME280;4324;42.012;24.872;2023-02-02T04:21:26;98952.03;;;6.73;87.18
8573;BME280;4324;42.012;24.872;2023-02-02T04:23:53;98945.13;;;6.72;83.94
8573;BME280;4324;42.012;24.872;2023-02-02T04:26:19;98967.22;;;6.89;85.36
8573;BME280;4324;42.012;24.872;2023-02-02T04:28:48;98969.75;;;6.91;85.41
8573;BME280;4324;42.012;24.872;2023-02-02T04:31:14;98967.22;;;6.99;84.76
8573;BME280;4324;42.012;24.872;2023-02-02T04:33:42;98959.59;;;6.96;83.57
8573;BME280;4324;42.012;24.872;2023-02-02T04:36:08;98961.84;;;6.91;84.36
8573;BME280;4324;42.012;24.872;2023-02-02T04:38:36;98971.22;;;6.93;85.01
8573;BME280;4324;42.012;24.872;2023-02-02T04:41:05;98971.81;;;6.87;85.03
8573;BME280;4324;42.012;24.872;2023-02-02T04:43:33;98949.84;;;6.69;84.88
8573;BME280;4324;42.012;24.872;2023-02-02T04:46:01;98978.47;;;6.82;85.16
8573;BME280;4324;42.012;24.872;2023-02-02T04:48:28;98987.91;;;6.74;85.34
8573;BME280;4324;42.012;24.872;2023-02-02T04:50:58;98977.97;;;6.68;84.64
8573;BME280;4324;42.012;24.872;2023-02-02T04:53:26;98977.69;;;6.71;85.59
8573;BME280;4324;42.012;24.872;2023-02-02T04:55:54;98991.53;;;6.73;84.66
8573;BME280;4324;42.012;24.872;2023-02-02T04:58:21;98960.22;;;6.70;82.12
8573;BME280;4324;42.012;24.872;2023-02-02T05:00:48;98990.34;;;6.95;83.64
8573;BME280;4324;42.012;24.872;2023-02-02T05:03:16;98968.22;;;6.78;84.75
8573;BME280;4324;42.012;24.872;2023-02-02T05:05:43;98977.94;;;6.78;84.65
8573;BME280;4324;42.012;24.872;2023-02-02T05:08:10;98925.69;;;6.46;82.86
8573;BME280;4324;42.012;24.872;2023-02-02T05:10:39;99003.09;;;7.00;85.40
8573;BME280;4324;42.012;24.872;2023-02-02T05:13:06;98988.44;;;6.97;83.50
8573;BME280;4324;42.012;24.872;2023-02-02T05:15:34;98993.09;;;7.03;84.45
8573;BME280;4324;42.012;24.872;2023-02-02T05:18:01;98972.09;;;6.84;85.25
8573;BME280;4324;42.012;24.872;2023-02-02T05:20:29;98959.38;;;6.79;83.39
8573;BME280;4324;42.012;24.872;2023-02-02T05:22:56;98937.53;;;6.69;85.26
8573;BME280;4324;42.012;24.872;2023-02-02T05:25:23;98890.13;;;6.42;85.44
8573;BME280;4324;42.012;24.872;2023-02-02T05:27:50;98989.25;;;6.98;81.37
8573;BME280;4324;42.012;24.872;2023-02-02T05:30:17;98986.06;;;6.94;80.87
8573;BME280;4324;42.012;24.872;2023-02-02T05:32:44;99003.34;;;7.07;83.87
8573;BME280;4324;42.012;24.872;2023-02-02T05:35:10;99004.63;;;7.02;84.00
8573;BME280;4324;42.012;24.872;2023-02-02T05:37:41;99006.97;;;6.96;81.83
8573;BME280;4324;42.012;24.872;2023-02-02T05:40:09;99003.78;;;7.02;85.05
8573;BME280;4324;42.012;24.872;2023-02-02T05:42:36;99005.31;;;6.95;84.29
8573;BME280;4324;42.012;24.872;2023-02-02T05:45:03;99005.97;;;7.07;85.73
8573;BME280;4324;42.012;24.872;2023-02-02T05:47:30;98978.47;;;6.82;86.35
8573;BME280;4324;42.012;24.872;2023-02-02T05:50:00;99019.16;;;7.07;84.69
8573;BME280;4324;42.012;24.872;2023-02-02T05:52:33;99022.16;;;7.12;84.20
8573;BME280;4324;42.012;24.872;2023-02-02T05:55:03;99006.13;;;7.05;82.23
8573;BME280;4324;42.012;24.872;2023-02-02T05:57:30;99025.06;;;7.18;84.04
8573;BME280;4324;42.012;24.872;2023-02-02T05:59:57;99003.19;;;7.08;82.64
8573;BME280;4324;42.012;24.872;2023-02-02T06:02:23;99026.84;;;7.27;79.61
8573;BME280;4324;42.012;24.872;2023-02-02T06:04:50;98985.84;;;7.15;82.14
8573;BME280;4324;42.012;24.872;2023-02-02T06:07:17;99019.84;;;7.46;84.56
8573;BME280;4324;42.012;24.872;2023-02-02T06:09:44;99024.78;;;7.49;84.17
8573;BME280;4324;42.012;24.872;2023-02-02T06:12:13;99023.41;;;7.55;85.23
8573;BME280;4324;42.012;24.872;2023-02-02T06:14:40;99022.69;;;7.52;85.49
8573;BME280;4324;42.012;24.872;2023-02-02T06:17:06;99003.63;;;7.41;82.83
8573;BME280;4324;42.012;24.872;2023-02-02T06:19:33;99030.13;;;7.67;86.14
8573;BME280;4324;42.012;24.872;2023-02-02T06:22:00;99041.91;;;7.72;85.28
8573;BME280;4324;42.012;24.872;2023-02-02T06:24:27;99032.22;;;7.63;84.49
8573;BME280;4324;42.012;24.872;2023-02-02T06:26:54;99042.19;;;7.69;83.35
8573;BME280;4324;42.012;24.872;2023-02-02T06:29:23;99010.59;;;7.60;82.70
8573;BME280;4324;42.012;24.872;2023-02-02T06:31:49;99053.22;;;7.83;80.80
8573;BME280;4324;42.012;24.872;2023-02-02T06:34:16;99047.97;;;7.83;74.85
8573;BME280;4324;42.012;24.872;2023-02-02T06:36:43;99049.97;;;7.89;74.87
8573;BME280;4324;42.012;24.872;2023-02-02T06:39:10;98971.06;;;7.42;76.32
8573;BME280;4324;42.012;24.872;2023-02-02T06:41:37;99046.41;;;7.90;76.46
8573;BME280;4324;42.012;24.872;2023-02-02T06:44:05;99055.59;;;8.04;71.23
8573;BME280;4324;42.012;24.872;2023-02-02T06:46:33;99051.75;;;7.98;72.22
8573;BME280;4324;42.012;24.872;2023-02-02T06:49:00;99050.19;;;8.05;67.28
8573;BME280;4324;42.012;24.872;2023-02-02T06:51:27;99060.00;;;8.13;65.58
8573;BME280;4324;42.012;24.872;2023-02-02T06:53:54;99055.31;;;8.24;66.88
8573;BME280;4324;42.012;24.872;2023-02-02T06:56:20;99082.38;;;8.27;65.15
8573;BME280;4324;42.012;24.872;2023-02-02T06:58:48;99050.41;;;8.30;63.46
8573;BME280;4324;42.012;24.872;2023-02-02T07:01:14;99045.94;;;8.40;62.89
8573;BME280;4324;42.012;24.872;2023-02-02T07:03:46;99047.88;;;8.56;69.88
8573;BME280;4324;42.012;24.872;2023-02-02T07:06:15;99056.72;;;8.64;64.62
8573;BME280;4324;42.012;24.872;2023-02-02T07:08:43;99063.03;;;8.71;64.93
8573;BME280;4324;42.012;24.872;2023-02-02T07:11:10;99049.09;;;8.61;62.87
8573;BME280;4324;42.012;24.872;2023-02-02T07:13:37;99061.66;;;8.67;59.95
8573;BME280;4324;42.012;24.872;2023-02-02T07:16:05;99062.06;;;8.72;60.39
8573;BME280;4324;42.012;24.872;2023-02-02T07:18:32;99065.75;;;8.80;57.25
8573;BME280;4324;42.012;24.872;2023-02-02T07:21:02;99070.72;;;8.83;56.96
8573;BME280;4324;42.012;24.872;2023-02-02T07:23:31;99077.41;;;8.95;62.06
8573;BME280;4324;42.012;24.872;2023-02-02T07:26:00;99076.59;;;8.94;58.20
8573;BME280;4324;42.012;24.872;2023-02-02T07:28:27;99054.97;;;8.73;57.02
8573;BME280;4324;42.012;24.872;2023-02-02T07:30:54;99077.88;;;8.90;55.52
8573;BME280;4324;42.012;24.872;2023-02-02T07:33:21;99081.41;;;8.99;56.16
8573;BME280;4324;42.012;24.872;2023-02-02T07:35:48;99081.75;;;9.04;57.01
8573;BME280;4324;42.012;24.872;2023-02-02T07:38:18;99072.34;;;9.02;56.60
8573;BME280;4324;42.012;24.872;2023-02-02T07:40:45;99068.66;;;8.94;56.90
8573;BME280;4324;42.012;24.872;2023-02-02T07:43:12;99080.31;;;9.10;53.75
8573;BME280;4324;42.012;24.872;2023-02-02T07:45:39;99093.06;;;9.14;52.76
8573;BME280;4324;42.012;24.872;2023-02-02T07:48:06;99082.78;;;9.11;53.31
8573;BME280;4324;42.012;24.872;2023-02-02T07:50:33;99090.63;;;9.21;52.18
8573;BME280;4324;42.012;24.872;2023-02-02T07:53:00;99090.69;;;9.29;52.80
8573;BME280;4324;42.012;24.872;2023-02-02T07:55:28;99066.13;;;9.37;52.80
8573;BME280;4324;42.012;24.872;2023-02-02T07:57:55;99072.44;;;9.44;54.07
8573;BME280;4324;42.012;24.872;2023-02-02T08:00:23;99078.66;;;9.61;53.82
8573;BME280;4324;42.012;24.872;2023-02-02T08:02:51;99054.56;;;9.72;54.27
8573;BME280;4324;42.012;24.872;2023-02-02T08:05:18;99073.53;;;10.02;56.90
8573;BME280;4324;42.012;24.872;2023-02-02T08:07:47;99061.78;;;10.04;57.04
8573;BME280;4324;42.012;24.872;2023-02-02T08:10:14;99045.91;;;10.04;55.58
8573;BME280;4324;42.012;24.872;2023-02-02T08:12:42;99067.25;;;10.11;53.49
8573;BME280;4324;42.012;24.872;2023-02-02T08:15:10;99082.78;;;10.06;52.55
8573;BME280;4324;42.012;24.872;2023-02-02T08:17:37;99067.34;;;9.93;53.11
8573;BME280;4324;42.012;24.872;2023-02-02T08:20:06;99080.25;;;9.88;52.89
8573;BME280;4324;42.012;24.872;2023-02-02T08:22:33;99058.06;;;9.81;54.29
8573;BME280;4324;42.012;24.872;2023-02-02T08:24:59;99066.34;;;9.86;53.14
8573;BME280;4324;42.012;24.872;2023-02-02T08:27:26;99066.09;;;10.05;54.48
8573;BME280;4324;42.012;24.872;2023-02-02T08:29:55;99076.53;;;10.23;54.66
8573;BME280;4324;42.012;24.872;2023-02-02T08:32:21;99064.97;;;10.24;54.29
8573;BME280;4324;42.012;24.872;2023-02-02T08:34:49;99058.09;;;10.31;54.15
8573;BME280;4324;42.012;24.872;2023-02-02T08:37:16;99068.81;;;10.30;56.35
8573;BME280;4324;42.012;24.872;2023-02-02T08:39:44;99061.84;;;10.21;56.07
8573;BME280;4324;42.012;24.872;2023-02-02T08:42:11;99043.63;;;10.09;59.26
8573;BME280;4324;42.012;24.872;2023-02-02T08:44:38;99059.13;;;10.04;59.26
8573;BME280;4324;42.012;24.872;2023-02-02T08:47:06;99052.19;;;10.03;59.56
8573;BME280;4324;42.012;24.872;2023-02-02T08:49:33;99066.41;;;10.02;59.36
8573;BME280;4324;42.012;24.872;2023-02-02T08:51:59;99055.13;;;9.92;53.82
8573;BME280;4324;42.012;24.872;2023-02-02T08:54:26;99044.03;;;9.88;50.47
8573;BME280;4324;42.012;24.872;2023-02-02T08:56:53;99019.72;;;9.85;51.10
8573;BME280;4324;42.012;24.872;2023-02-02T08:59:20;99051.19;;;10.04;52.57
8573;BME280;4324;42.012;24.872;2023-02-02T09:01:47;99044.94;;;10.05;49.79
8573;BME280;4324;42.012;24.872;2023-02-02T09:04:15;99060.13;;;10.11;47.37
8573;BME280;4324;42.012;24.872;2023-02-02T09:06:43;99071.41;;;10.22;46.85
8573;BME280;4324;42.012;24.872;2023-02-02T09:09:12;99058.53;;;10.27;45.54
8573;BME280;4324;42.012;24.872;2023-02-02T09:11:40;99064.53;;;10.29;44.83
8573;BME280;4324;42.012;24.872;2023-02-02T09:14:09;99045.34;;;10.35;45.64
8573;BME280;4324;42.012;24.872;2023-02-02T09:16:37;99021.97;;;10.22;44.67
8573;BME280;4324;42.012;24.872;2023-02-02T09:19:05;99041.06;;;10.42;45.23
8573;BME280;4324;42.012;24.872;2023-02-02T09:21:34;99028.78;;;10.41;45.39
8573;BME280;4324;42.012;24.872;2023-02-02T09:24:05;99031.44;;;10.49;45.24
8573;BME280;4324;42.012;24.872;2023-02-02T09:26:33;99027.81;;;10.50;45.61
8573;BME280;4324;42.012;24.872;2023-02-02T09:29:02;99019.56;;;10.61;45.93
8573;BME280;4324;42.012;24.872;2023-02-02T09:31:31;98988.28;;;10.57;45.15
8573;BME280;4324;42.012;24.872;2023-02-02T09:34:00;99009.94;;;10.69;45.07
8573;BME280;4324;42.012;24.872;2023-02-02T09:36:28;98988.41;;;10.63;46.00
8573;BME280;4324;42.012;24.872;2023-02-02T09:38:56;99011.06;;;10.82;46.10
8573;BME280;4324;42.012;24.872;2023-02-02T09:41:53;98995.53;;;10.87;45.39
8573;BME280;4324;42.012;24.872;2023-02-02T09:44:34;98984.75;;;10.89;46.22
8573;BME280;4324;42.012;24.872;2023-02-02T09:47:14;98967.53;;;10.93;47.08
8573;BME280;4324;42.012;24.872;2023-02-02T09:49:50;98985.56;;;11.06;47.30
8573;BME280;4324;42.012;24.872;2023-02-02T09:52:23;98980.41;;;11.12;46.92
8573;BME280;4324;42.012;24.872;2023-02-02T09:54:57;98975.75;;;11.14;46.79
8573;BME280;4324;42.012;24.872;2023-02-02T09:57:28;98989.66;;;11.25;44.58
8573;BME280;4324;42.012;24.872;2023-02-02T09:59:57;98960.16;;;11.20;45.54
8573;BME280;4324;42.012;24.872;2023-02-02T10:02:27;98937.66;;;11.15;45.71
8573;BME280;4324;42.012;24.872;2023-02-02T10:05:01;98975.19;;;11.35;44.61
8573;BME280;4324;42.012;24.872;2023-02-02T10:07:37;98973.66;;;11.41;43.99
8573;BME280;4324;42.012;24.872;2023-02-02T10:10:10;98942.72;;;11.33;44.89
8573;BME280;4324;42.012;24.872;2023-02-02T10:12:43;98955.78;;;11.43;45.58
8573;BME280;4324;42.012;24.872;2023-02-02T10:15:16;98957.63;;;11.34;42.76
8573;BME280;4324;42.012;24.872;2023-02-02T10:17:50;98976.34;;;11.33;42.16
8573;BME280;4324;42.012;24.872;2023-02-02T10:20:29;98928.34;;;11.20;43.08
8573;BME280;4324;42.012;24.872;2023-02-02T10:23:03;98950.19;;;11.30;43.05
8573;BME280;4324;42.012;24.872;2023-02-02T10:25:34;98942.91;;;11.32;42.74
8573;BME280;4324;42.012;24.872;2023-02-02T10:28:05;98953.47;;;11.40;43.10
8573;BME280;4324;42.012;24.872;2023-02-02T10:30:41;98963.72;;;11.43;42.30
8573;BME280;4324;42.012;24.872;2023-02-02T10:33:17;98944.69;;;11.39;42.00
8573;BME280;4324;42.012;24.872;2023-02-02T10:35:50;98903.19;;;11.24;42.40
8573;BME280;4324;42.012;24.872;2023-02-02T10:38:22;98918.72;;;11.35;43.04
8573;BME280;4324;42.012;24.872;2023-02-02T10:41:01;98925.94;;;11.41;42.72
8573;BME280;4324;42.012;24.872;2023-02-02T10:46:33;98911.34;;;11.45;43.14
8573;BME280;4324;42.012;24.872;2023-02-02T10:49:16;98885.06;;;11.35;42.88
8573;BME280;4324;42.012;24.872;2023-02-02T10:51:49;98899.91;;;11.45;42.56
8573;BME280;4324;42.012;24.872;2023-02-02T10:54:34;98917.59;;;11.52;42.44
8573;BME280;4324;42.012;24.872;2023-02-02T10:57:06;98898.69;;;11.55;42.89
8573;BME280;4324;42.012;24.872;2023-02-02T10:59:39;98871.91;;;11.50;43.01
8573;BME280;4324;42.012;24.872;2023-02-02T11:02:09;98883.22;;;11.67;42.48
8573;BME280;4324;42.012;24.872;2023-02-02T11:04:36;98878.97;;;11.81;42.97
8573;BME280;4324;42.012;24.872;2023-02-02T11:07:21;98858.09;;;11.78;43.03
8573;BME280;4324;42.012;24.872;2023-02-02T11:09:49;98850.09;;;11.86;43.02
8573;BME280;4324;42.012;24.872;2023-02-02T11:12:23;98855.56;;;12.07;43.15
8573;BME280;4324;42.012;24.872;2023-02-02T11:14:58;98864.94;;;12.18;43.10
8573;BME280;4324;42.012;24.872;2023-02-02T11:17:26;98865.75;;;12.19;42.46
8573;BME280;4324;42.012;24.872;2023-02-02T11:19:53;98857.44;;;12.22;41.82
8573;BME280;4324;42.012;24.872;2023-02-02T11:22:27;98846.56;;;12.17;42.09
8573;BME280;4324;42.012;24.872;2023-02-02T11:24:55;98836.28;;;12.14;41.77
8573;BME280;4324;42.012;24.872;2023-02-02T11:27:27;98843.47;;;12.28;41.85
8573;BME280;4324;42.012;24.872;2023-02-02T11:29:57;98832.84;;;12.28;41.99
8573;BME280;4324;42.012;24.872;2023-02-02T11:32:27;98827.09;;;12.39;42.57
8573;BME280;4324;42.012;24.872;2023-02-02T11:35:19;98833.22;;;12.40;42.66
8573;BME280;4324;42.012;24.872;2023-02-02T11:37:56;98829.09;;;12.52;43.23
8573;BME280;4324;42.012;24.872;2023-02-02T11:40:31;98806.00;;;12.52;43.36
8573;BME280;4324;42.012;24.872;2023-02-02T11:43:04;98822.25;;;12.57;43.67
8573;BME280;4324;42.012;24.872;2023-02-02T11:45:34;98799.31;;;12.56;42.20
8573;BME280;4324;42.012;24.872;2023-02-02T11:48:05;98796.03;;;12.54;41.78
8573;BME280;4324;42.012;24.872;2023-02-02T11:50:34;98783.50;;;12.48;41.11
8573;BME280;4324;42.012;24.872;2023-02-02T11:53:01;98793.66;;;12.59;40.30
8573;BME280;4324;42.012;24.872;2023-02-02T11:55:30;98782.00;;;12.60;40.59
8573;BME280;4324;42.012;24.872;2023-02-02T11:58:18;98779.81;;;12.64;40.52
8573;BME280;4324;42.012;24.872;2023-02-02T12:00:50;98780.81;;;12.78;40.05
8573;BME280;4324;42.012;24.872;2023-02-02T12:03:23;98769.09;;;12.87;40.12
8573;BME280;4324;42.012;24.872;2023-02-02T12:05:50;98772.81;;;12.93;39.79
8573;BME280;4324;42.012;24.872;2023-02-02T12:08:18;98759.41;;;13.01;39.06
8573;BME280;4324;42.012;24.872;2023-02-02T12:10:50;98766.44;;;13.08;37.72
8573;BME280;4324;42.012;24.872;2023-02-02T12:13:38;98764.44;;;13.11;37.67
8573;BME280;4324;42.012;24.872;2023-02-02T12:16:27;98765.94;;;13.20;37.22
8573;BME280;4324;42.012;24.872;2023-02-02T12:19:12;98743.91;;;13.04;36.32
8573;BME280;4324;42.012;24.872;2023-02-02T12:21:46;98748.84;;;13.07;36.46
8573;BME280;4324;42.012;24.872;2023-02-02T12:24:26;98753.44;;;13.14;35.71
8573;BME280;4324;42.012;24.872;2023-02-02T12:27:02;98737.47;;;13.14;36.17
8573;BME280;4324;42.012;24.872;2023-02-02T12:29:44;98741.13;;;13.27;35.85
8573;BME280;4324;42.012;24.872;2023-02-02T12:32:26;98743.47;;;13.37;35.22
8573;BME280;4324;42.012;24.872;2023-02-02T12:35:14;98752.13;;;13.46;34.64
8573;BME280;4324;42.012;24.872;2023-02-02T12:37:53;98750.41;;;13.60;34.64
8573;BME280;4324;42.012;24.872;2023-02-02T12:40:37;98739.25;;;13.71;34.88
8573;BME280;4324;42.012;24.872;2023-02-02T12:43:16;98739.09;;;13.72;34.82
8573;BME280;4324;42.012;24.872;2023-02-02T12:49:13;98731.56;;;13.54;34.10
8573;BME280;4324;42.012;24.872;2023-02-02T12:51:56;98749.72;;;13.72;34.07
8573;BME280;4324;42.012;24.872;2023-02-02T12:54:40;98760.53;;;13.71;33.89
8573;BME280;4324;42.012;24.872;2023-02-02T12:57:15;98753.00;;;13.53;33.70
8573;BME280;4324;42.012;24.872;2023-02-02T13:00:09;98745.75;;;13.40;34.02
8573;BME280;4324;42.012;24.872;2023-02-02T13:02:45;98761.84;;;13.32;33.83
8573;BME280;4324;42.012;24.872;2023-02-02T13:05:38;98740.38;;;13.19;33.69
8573;BME280;4324;42.012;24.872;2023-02-02T13:08:13;98728.50;;;13.15;33.75
8573;BME280;4324;42.012;24.872;2023-02-02T13:10:44;98735.84;;;13.13;33.74
8573;BME280;4324;42.012;24.872;2023-02-02T13:13:16;98745.19;;;13.08;34.00
8573;BME280;4324;42.012;24.872;2023-02-02T13:15:47;98722.78;;;12.96;34.60
8573;BME280;4324;42.012;24.872;2023-02-02T13:18:19;98734.44;;;12.95;34.32
8573;BME280;4324;42.012;24.872;2023-02-02T13:20:52;98732.78;;;12.94;34.86
8573;BME280;4324;42.012;24.872;2023-02-02T13:23:24;98734.25;;;12.82;35.42
8573;BME280;4324;42.012;24.872;2023-02-02T13:25:57;98741.16;;;12.76;35.57
8573;BME280;4324;42.012;24.872;2023-02-02T13:28:35;98734.50;;;12.66;35.43
8573;BME280;4324;42.012;24.872;2023-02-02T13:31:09;98739.16;;;12.64;36.10
8573;BME280;4324;42.012;24.872;2023-02-02T13:33:40;98731.19;;;12.64;36.30
8573;BME280;4324;42.012;24.872;2023-02-02T13:36:14;98733.22;;;12.62;36.36
8573;BME280;4324;42.012;24.872;2023-02-02T13:38:43;98703.13;;;12.40;36.39
8573;BME280;4324;42.012;24.872;2023-02-02T13:41:11;98728.28;;;12.58;36.40
8573;BME280;4324;42.012;24.872;2023-02-02T13:43:45;98715.09;;;12.50;36.38
8573;BME280;4324;42.012;24.872;2023-02-02T13:46:22;98736.50;;;12.64;36.39